فيلادلفيا، بنسيلفانيا, PA

04:41 AM EDT on وèلهبر 01, 2014 (GMT -0400)
Philadelphia | Change Station
CLOSE
Current Station
Personal Weather Stations
Location: Philadelphia, PA
Elevation: 167 ft
Nearby Weather Stations

Elev 167 ft 40.13 °N, 75.00 °W | Updated 14 minutes ago

Light Rain
مطر خفيف
45.9 °F
Feels Like 41 °F
N
9.4
ريح متغير ريح from ENE

هذا اليوم
High -- | Low -- °F
--% Chance of Precip.
Yesterday
High -- | Low -- °F
Precip. -- في
7:29 AM 5:57 PM
الأحدب الأول, 64% visible
الضغط 29.79 في
وضوح الرؤية 6.0 أميال
سحابات غائم 1600 ft
رياح باردة 41 °F
نقطة الندى 45 °F
الرطوبة 96%
Rainfall 0.12 في
عمق الثلج Not available.
الأشعة فوق البنفسجية 0 out of 12
Pollen .40 out of 12
جودة الهواء Not available.
Flu Activity Not available.
METAR KPNE 010754Z AUTO 04013KT 6SM -RA OVC016 09/06 A2979 RMK AO2 RAB20 SLP088 P0001 T00940056 TSNO

More Conditions Fewer Conditions

الضغط 29.79 في
وضوح الرؤية 6.0 أميال
سحابات غائم 1600 ft
رياح باردة 41 °F
نقطة الندى 45 °F
الرطوبة 96%
Rainfall 0.12 في
عمق الثلج Not available.
الأشعة فوق البنفسجية 0 out of 12
Pollen .40 out of 12
جودة الهواء Not available.
Flu Activity Not available.
METAR KPNE 010754Z AUTO 04013KT 6SM -RA OVC016 09/06 A2979 RMK AO2 RAB20 SLP088 P0001 T00940056 TSNO

More Conditions Fewer Conditions

Nowcast | as of 2:35 am EDT on November 1, 2014

Rain showers will move across the area and increase in coverage through the early morning hours. Most rain is expected to be light and only amount to a couple of hundredths of an inch per hour where it falls. Northeast winds around 10 to 15 mph with gusts around 20 mph will continue.

×

10-Day Weather Forecast

Almanac

علم الفلك

Nov. 01, 2014 Rise Set
Actual Time
Civil Twilight
Nautical Twilight
Astronomical Twilight
قمر
Length Of Visible Light
طول الیوم
Tomorrow will be .
, % of the Moon is Illuminated

Today's Extremes

State Highs State Lows

Community

WunderPhotos

Upload Photos

1,766,871 photos uploaded!

WunderBlogs® & News

Nearby

جودة الهواء

  جودة الهواء AQ Index Pollutant
Not available.

عمق الثلج

Station Depth Elevation

Earthquake Activity

City Distance Mag. Time & Date
Minimum magnitude displayed is 2.5.

Coastal Water Temperatures

مكان درجات الحرارة

Nearby Weather Stations